createdAt,value
2023-05-31T00:01:43.799Z,55.68
2023-05-31T00:04:15.409Z,55.68
2023-05-31T00:06:47.126Z,55.81
2023-05-31T00:09:18.650Z,56.07
2023-05-31T00:11:50.129Z,56.42
2023-05-31T00:14:21.600Z,56.44
2023-05-31T00:17:24.048Z,56.52
2023-05-31T00:19:45.416Z,56.59
2023-05-31T00:22:18.132Z,56.69
2023-05-31T00:24:48.563Z,56.98
2023-05-31T00:27:20.340Z,57.03
2023-05-31T00:29:51.825Z,57.00
2023-05-31T00:32:23.699Z,57.18
2023-05-31T00:34:55.065Z,57.15
2023-05-31T00:37:26.467Z,57.07
2023-05-31T00:39:57.826Z,56.90
2023-05-31T00:42:29.290Z,57.16
2023-05-31T00:45:00.667Z,57.34
2023-05-31T00:47:32.483Z,57.19
2023-05-31T00:50:04.332Z,57.18
2023-05-31T00:52:41.115Z,57.10
2023-05-31T00:55:13.478Z,57.43
2023-05-31T00:57:46.547Z,57.46
2023-05-31T01:00:19.052Z,57.60
2023-05-31T01:02:51.886Z,57.79
2023-05-31T01:05:24.102Z,57.81
2023-05-31T01:07:55.553Z,57.91
2023-05-31T01:10:27.170Z,57.85
2023-05-31T01:13:08.324Z,57.87
2023-05-31T01:15:48.736Z,58.12
2023-05-31T01:18:27.800Z,58.22
2023-05-31T01:21:04.388Z,58.35
2023-05-31T01:24:02.247Z,58.55
2023-05-31T01:26:47.041Z,58.71
2023-05-31T01:29:23.336Z,59.04
2023-05-31T01:31:57.254Z,59.17
2023-05-31T01:34:28.802Z,59.21
2023-05-31T01:37:00.580Z,59.38
2023-05-31T01:39:32.318Z,59.50
2023-05-31T01:42:07.015Z,59.66
2023-05-31T01:44:41.241Z,59.84
2023-05-31T01:47:13.826Z,59.94
2023-05-31T01:49:46.066Z,60.09
2023-05-31T01:52:19.459Z,60.24
2023-05-31T01:54:50.924Z,60.93
2023-05-31T01:57:23.598Z,61.48
2023-05-31T01:59:56.309Z,62.68
2023-05-31T02:02:26.865Z,63.33
2023-05-31T02:05:09.755Z,63.53
2023-05-31T02:07:49.004Z,62.98
2023-05-31T02:10:32.072Z,63.02
2023-05-31T02:13:07.682Z,62.86
2023-05-31T02:15:42.652Z,63.25
2023-05-31T02:18:18.277Z,63.41
2023-05-31T02:20:52.001Z,63.44
2023-05-31T02:23:25.409Z,63.47
2023-05-31T02:25:57.405Z,64.12
2023-05-31T02:28:29.890Z,64.64
2023-05-31T02:31:02.533Z,65.12
2023-05-31T02:33:35.346Z,64.94
2023-05-31T02:36:07.738Z,64.72
2023-05-31T02:38:40.191Z,65.00
2023-05-31T02:41:11.722Z,65.79
2023-05-31T02:43:43.801Z,66.03
2023-05-31T02:46:16.757Z,66.46
2023-05-31T02:48:48.407Z,66.51
2023-05-31T02:51:20.495Z,66.30
2023-05-31T02:54:18.318Z,67.03
2023-05-31T02:56:50.321Z,66.80
2023-05-31T02:59:26.177Z,67.48
2023-05-31T03:02:03.729Z,67.75
2023-05-31T03:04:49.593Z,68.05
2023-05-31T03:07:21.186Z,68.35
2023-05-31T03:09:52.804Z,68.47
2023-05-31T03:12:24.937Z,68.79
2023-05-31T03:14:56.809Z,68.60
2023-05-31T03:17:28.326Z,67.99
2023-05-31T03:19:59.934Z,67.80
2023-05-31T03:22:31.970Z,67.60
2023-05-31T03:25:05.035Z,67.67
2023-05-31T03:27:36.494Z,67.70
2023-05-31T03:30:09.918Z,67.71
2023-05-31T03:32:47.201Z,67.74
2023-05-31T03:35:18.969Z,67.85
2023-05-31T03:37:50.872Z,68.02
2023-05-31T03:40:22.686Z,68.28
2023-05-31T03:42:54.110Z,68.61
2023-05-31T03:45:27.044Z,68.66
2023-05-31T03:47:58.902Z,68.58
2023-05-31T03:50:30.484Z,68.33
2023-05-31T03:53:02.014Z,68.41
2023-05-31T03:55:33.606Z,68.56
2023-05-31T03:58:05.429Z,68.64
2023-05-31T04:00:38.750Z,68.45
2023-05-31T04:03:13.247Z,68.72
2023-05-31T04:05:46.167Z,68.94
2023-05-31T04:08:16.709Z,69.01
2023-05-31T04:10:48.213Z,68.98
2023-05-31T04:13:20.391Z,69.04
2023-05-31T04:15:52.772Z,69.05
2023-05-31T04:18:24.757Z,69.17
2023-05-31T04:20:56.372Z,69.31
2023-05-31T04:23:27.872Z,69.45
2023-05-31T04:26:01.233Z,69.19
2023-05-31T04:28:32.986Z,69.38
2023-05-31T04:31:04.941Z,69.31
2023-05-31T04:33:37.862Z,69.19
2023-05-31T04:36:10.795Z,68.94
2023-05-31T04:38:42.629Z,68.58
2023-05-31T04:41:15.512Z,68.79
2023-05-31T04:43:48.753Z,68.90
2023-05-31T04:46:22.650Z,68.69
2023-05-31T04:48:58.149Z,68.43
2023-05-31T04:51:29.959Z,68.06
2023-05-31T04:54:02.025Z,68.06
2023-05-31T04:56:33.551Z,68.12
2023-05-31T04:59:05.599Z,68.16
2023-05-31T05:01:38.443Z,68.30
2023-05-31T05:04:15.147Z,68.12
2023-05-31T05:06:48.664Z,68.27
2023-05-31T05:09:19.296Z,68.09
2023-05-31T05:11:51.375Z,67.78
2023-05-31T05:14:23.268Z,67.50
2023-05-31T05:16:55.633Z,67.31
2023-05-31T05:19:27.848Z,67.27
2023-05-31T05:21:59.739Z,67.31
2023-05-31T05:24:31.686Z,67.21
2023-05-31T05:27:02.856Z,67.16
2023-05-31T05:29:34.894Z,67.67
2023-05-31T05:32:08.627Z,67.64
2023-05-31T05:34:41.044Z,67.64
2023-05-31T05:37:13.371Z,66.79
2023-05-31T05:39:45.676Z,66.44
2023-05-31T05:42:17.472Z,66.29
2023-05-31T05:44:49.313Z,66.19
2023-05-31T05:47:21.366Z,65.70
2023-05-31T05:49:55.408Z,65.66
2023-05-31T05:52:27.308Z,65.45
2023-05-31T05:54:59.358Z,64.76
2023-05-31T05:57:31.615Z,64.13
2023-05-31T06:00:16.638Z,63.92
2023-05-31T06:02:51.796Z,63.72
2023-05-31T06:05:26.931Z,63.61
2023-05-31T06:08:03.762Z,63.67
2023-05-31T06:10:41.698Z,63.13
2023-05-31T06:13:14.034Z,63.08
2023-05-31T06:15:46.261Z,62.87
2023-05-31T06:18:18.134Z,62.90
2023-05-31T06:20:50.803Z,62.37
2023-05-31T06:23:22.721Z,62.17
2023-05-31T06:25:54.775Z,61.93
2023-05-31T06:28:26.777Z,61.65
2023-05-31T06:31:02.010Z,60.78
2023-05-31T06:33:34.194Z,60.87
2023-05-31T06:36:06.591Z,60.84
2023-05-31T06:38:38.635Z,60.42
2023-05-31T06:41:12.349Z,59.93
2023-05-31T06:43:43.100Z,60.21
2023-05-31T06:46:33.516Z,60.46
2023-05-31T06:49:24.018Z,59.77
2023-05-31T06:52:16.005Z,58.59
2023-05-31T06:55:17.076Z,58.05
2023-05-31T06:57:49.395Z,58.12
2023-05-31T07:00:22.354Z,57.63
2023-05-31T07:02:54.982Z,57.12
2023-05-31T07:05:27.200Z,54.53
2023-05-31T07:07:59.447Z,54.90
2023-05-31T07:10:31.804Z,53.98
2023-05-31T07:13:03.611Z,53.39
2023-05-31T07:15:35.754Z,52.91
2023-05-31T07:18:08.130Z,52.10
2023-05-31T07:20:40.312Z,51.76
2023-05-31T07:23:12.235Z,51.85
2023-05-31T07:25:44.588Z,51.96
2023-05-31T07:28:16.569Z,51.89
2023-05-31T07:30:48.456Z,51.18
2023-05-31T07:33:28.375Z,51.08
2023-05-31T07:36:03.350Z,50.84
2023-05-31T07:38:35.518Z,51.46
2023-05-31T07:41:07.655Z,51.34
2023-05-31T07:43:40.754Z,51.01
2023-05-31T07:46:12.804Z,51.26
2023-05-31T07:48:44.750Z,50.68
2023-05-31T07:51:17.481Z,50.20
2023-05-31T07:53:49.920Z,49.55
2023-05-31T07:56:21.927Z,49.37
2023-05-31T07:58:53.960Z,49.73
2023-05-31T08:01:25.800Z,49.95
2023-05-31T08:04:07.130Z,49.08
2023-05-31T08:06:39.226Z,48.88
2023-05-31T08:09:11.736Z,49.11
2023-05-31T08:11:43.609Z,49.16
2023-05-31T08:14:15.585Z,48.81
2023-05-31T08:16:50.271Z,48.15
2023-05-31T08:19:22.439Z,48.51
2023-05-31T08:21:54.263Z,48.97
2023-05-31T08:24:26.253Z,48.44
2023-05-31T08:26:59.388Z,48.78
2023-05-31T08:29:31.527Z,48.75
2023-05-31T08:32:03.304Z,48.71
2023-05-31T08:34:35.068Z,48.89
2023-05-31T08:37:07.394Z,48.39
2023-05-31T08:39:39.216Z,47.62
2023-05-31T08:42:17.157Z,46.79
2023-05-31T08:44:49.869Z,46.95
2023-05-31T08:47:24.132Z,46.89
2023-05-31T08:49:57.678Z,46.15
2023-05-31T08:52:30.720Z,45.99
2023-05-31T08:55:03.208Z,45.77
2023-05-31T08:57:36.641Z,46.67
2023-05-31T09:00:13.772Z,46.66
2023-05-31T09:02:49.349Z,45.71
2023-05-31T09:05:21.389Z,46.57
2023-05-31T09:07:53.620Z,46.04
2023-05-31T09:10:25.441Z,45.62
2023-05-31T09:12:57.620Z,45.59
2023-05-31T09:15:29.839Z,44.97
2023-05-31T09:18:13.822Z,45.20
2023-05-31T09:20:48.709Z,44.26
2023-05-31T09:23:22.133Z,43.53
2023-05-31T09:25:55.710Z,43.08
2023-05-31T09:28:28.217Z,43.20
2023-05-31T09:31:08.813Z,43.07
2023-05-31T09:33:45.373Z,43.00
2023-05-31T09:36:26.129Z,43.29
2023-05-31T09:39:05.092Z,43.22
2023-05-31T09:41:37.272Z,42.96
2023-05-31T09:44:11.535Z,41.93
2023-05-31T09:46:43.988Z,41.86
2023-05-31T09:49:16.310Z,41.32
2023-05-31T09:51:54.946Z,41.35
2023-05-31T09:54:28.699Z,41.38
2023-05-31T09:57:02.883Z,40.27
2023-05-31T09:59:33.836Z,40.31
2023-05-31T10:02:06.310Z,40.49
2023-05-31T10:04:36.743Z,40.29
2023-05-31T10:07:10.130Z,39.64
2023-05-31T10:09:41.959Z,39.17
2023-05-31T10:12:16.157Z,38.41
2023-05-31T10:14:51.841Z,37.86
2023-05-31T10:17:29.776Z,38.40
2023-05-31T10:20:06.097Z,38.61
2023-05-31T10:22:41.923Z,38.15
2023-05-31T10:25:20.146Z,37.64
2023-05-31T10:27:56.421Z,37.38
2023-05-31T10:30:32.308Z,38.24
2023-05-31T10:33:12.902Z,36.78
2023-05-31T10:35:48.265Z,36.94
2023-05-31T10:38:28.574Z,35.87
2023-05-31T10:41:05.768Z,36.23
2023-05-31T10:43:44.765Z,35.88
2023-05-31T10:46:21.786Z,35.75
2023-05-31T10:48:57.046Z,34.99
2023-05-31T10:51:43.193Z,34.90
2023-05-31T10:54:22.164Z,34.98
2023-05-31T10:56:58.509Z,35.53
2023-05-31T10:59:30.725Z,35.21
2023-05-31T11:02:01.883Z,35.62
2023-05-31T11:04:33.868Z,35.50
2023-05-31T11:07:17.676Z,35.25
2023-05-31T11:10:01.147Z,35.33
2023-05-31T11:12:37.569Z,35.28
2023-05-31T11:15:16.354Z,34.90
2023-05-31T11:17:56.732Z,34.37
2023-05-31T11:20:30.157Z,34.13
2023-05-31T11:23:31.683Z,34.49
2023-05-31T11:26:19.512Z,33.55
2023-05-31T11:29:10.832Z,33.42
2023-05-31T11:32:02.803Z,33.47
2023-05-31T11:34:50.171Z,34.08
2023-05-31T11:37:24.398Z,34.30
2023-05-31T11:39:57.802Z,33.30
2023-05-31T11:42:33.983Z,32.68
2023-05-31T11:45:08.671Z,32.04
2023-05-31T11:48:01.226Z,32.27
2023-05-31T11:50:34.762Z,31.92
2023-05-31T11:53:08.246Z,30.87
2023-05-31T11:55:40.036Z,30.68
2023-05-31T11:58:12.175Z,31.10
2023-05-31T12:00:48.764Z,30.31
2023-05-31T12:03:22.840Z,30.26
2023-05-31T12:05:58.440Z,30.90
2023-05-31T12:08:30.623Z,30.85
2023-05-31T12:11:07.190Z,31.17
2023-05-31T12:13:39.063Z,31.50
2023-05-31T12:16:10.975Z,31.86
2023-05-31T12:18:42.854Z,32.20
2023-05-31T12:21:16.755Z,32.29
2023-05-31T12:23:59.611Z,32.48
2023-05-31T12:26:37.625Z,32.82
2023-05-31T12:29:10.011Z,32.92
2023-05-31T12:31:42.552Z,32.96
2023-05-31T12:34:13.940Z,32.60
2023-05-31T12:36:48.589Z,33.09
2023-05-31T12:39:25.619Z,31.94
2023-05-31T12:41:59.555Z,31.19
2023-05-31T12:44:32.890Z,31.40
2023-05-31T12:47:08.971Z,31.40
2023-05-31T12:49:42.954Z,30.43
2023-05-31T12:52:18.868Z,29.68
2023-05-31T12:54:50.918Z,29.04
2023-05-31T12:57:23.230Z,29.19
2023-05-31T13:00:03.298Z,28.46
2023-05-31T13:02:35.412Z,28.08
2023-05-31T13:05:08.520Z,28.40
2023-05-31T13:07:41.568Z,28.37
2023-05-31T13:10:15.489Z,27.78
2023-05-31T13:12:47.826Z,28.67
2023-05-31T13:15:20.311Z,28.81
2023-05-31T13:17:53.307Z,28.64
2023-05-31T13:20:25.694Z,28.26
2023-05-31T13:22:58.204Z,28.27
2023-05-31T13:25:35.619Z,27.78
2023-05-31T13:28:07.595Z,27.65
2023-05-31T13:30:40.407Z,26.33
2023-05-31T13:33:12.264Z,26.46
2023-05-31T13:35:44.515Z,26.55
2023-05-31T13:38:16.654Z,25.55
2023-05-31T13:40:48.624Z,25.27
2023-05-31T13:43:20.744Z,25.84
2023-05-31T13:45:52.664Z,25.86
2023-05-31T13:48:24.508Z,25.10
2023-05-31T13:50:56.295Z,24.67
2023-05-31T13:53:28.971Z,24.89
2023-05-31T13:56:03.729Z,26.87
2023-05-31T13:58:37.526Z,26.83
2023-05-31T14:01:10.151Z,26.82
2023-05-31T14:03:42.428Z,27.28
2023-05-31T14:06:14.957Z,27.03
2023-05-31T14:08:46.805Z,27.72
2023-05-31T14:11:18.896Z,27.98
2023-05-31T14:13:52.230Z,27.72
2023-05-31T14:16:24.678Z,28.25
2023-05-31T14:18:56.750Z,27.42
2023-05-31T14:21:29.254Z,27.85
2023-05-31T14:24:01.242Z,28.75
2023-05-31T14:26:33.352Z,27.63
2023-05-31T14:29:04.127Z,27.43
2023-05-31T14:31:38.145Z,27.47
2023-05-31T14:34:10.075Z,27.68
2023-05-31T14:36:43.360Z,27.66
2023-05-31T14:39:15.913Z,26.84
2023-05-31T14:41:47.706Z,26.10
2023-05-31T14:44:19.863Z,25.07
2023-05-31T14:46:53.455Z,24.66
2023-05-31T14:49:26.203Z,24.95
2023-05-31T14:51:58.542Z,24.56
2023-05-31T14:54:30.532Z,24.86
2023-05-31T14:57:03.609Z,23.86
2023-05-31T14:59:35.637Z,23.13
2023-05-31T15:02:08.398Z,23.13
2023-05-31T15:04:41.380Z,22.60
2023-05-31T15:07:14.566Z,22.07
2023-05-31T15:09:46.378Z,20.82
2023-05-31T15:12:18.340Z,20.22
2023-05-31T15:14:50.450Z,20.05
2023-05-31T15:17:20.878Z,20.12
2023-05-31T15:19:53.310Z,20.49
2023-05-31T15:22:25.469Z,20.11
2023-05-31T15:24:55.761Z,20.16
2023-05-31T15:27:27.631Z,20.23
2023-05-31T15:29:59.393Z,19.95
2023-05-31T15:32:31.213Z,19.97
2023-05-31T15:35:03.096Z,19.34
2023-05-31T15:37:36.331Z,19.65
2023-05-31T15:40:10.428Z,19.45
2023-05-31T15:42:42.335Z,19.52
2023-05-31T15:45:14.555Z,19.79
2023-05-31T15:47:44.998Z,19.83
2023-05-31T15:50:17.617Z,20.40
2023-05-31T15:52:49.711Z,21.34
2023-05-31T15:55:22.371Z,21.57
2023-05-31T15:57:54.367Z,21.81
2023-05-31T16:00:26.588Z,21.79
2023-05-31T16:02:58.487Z,21.74
2023-05-31T16:05:30.669Z,21.68
2023-05-31T16:08:03.448Z,21.02
2023-05-31T16:10:35.339Z,20.86
2023-05-31T16:13:09.447Z,21.03
2023-05-31T16:15:41.593Z,21.29
2023-05-31T16:18:12.024Z,21.50
2023-05-31T16:20:44.055Z,21.84
2023-05-31T16:23:16.056Z,21.93
2023-05-31T16:25:48.372Z,21.97
2023-05-31T16:28:20.215Z,22.03
2023-05-31T16:30:52.277Z,22.24
2023-05-31T16:33:22.930Z,22.23
2023-05-31T16:35:54.812Z,22.74
2023-05-31T16:40:09.880Z,21.51
2023-05-31T16:42:41.889Z,23.76
2023-05-31T16:45:12.531Z,24.13
2023-05-31T16:47:44.390Z,21.58
2023-05-31T16:50:16.026Z,21.37
2023-05-31T16:52:52.438Z,22.04
2023-05-31T16:55:24.778Z,21.82
2023-05-31T16:57:57.508Z,22.14
2023-05-31T17:00:29.731Z,22.60
2023-05-31T17:03:02.108Z,23.39
2023-05-31T17:05:34.502Z,24.76
2023-05-31T17:08:04.931Z,25.96
2023-05-31T17:10:36.880Z,26.31
2023-05-31T17:13:10.448Z,27.43
2023-05-31T17:15:43.252Z,28.36
2023-05-31T17:18:13.679Z,29.03
2023-05-31T17:20:46.553Z,29.36
2023-05-31T17:23:17.116Z,30.03
2023-05-31T17:25:49.095Z,30.56
2023-05-31T17:28:21.109Z,30.86
2023-05-31T17:30:53.714Z,30.99
2023-05-31T17:33:25.649Z,31.15
2023-05-31T17:35:57.817Z,31.27
2023-05-31T17:38:29.704Z,31.32
2023-05-31T17:41:01.764Z,31.43
2023-05-31T17:43:34.338Z,32.28
2023-05-31T17:46:06.238Z,32.14
2023-05-31T17:48:43.194Z,32.45
2023-05-31T17:51:15.268Z,32.44
2023-05-31T17:53:48.028Z,32.12
2023-05-31T17:56:20.494Z,32.29
2023-05-31T17:58:52.405Z,32.96
2023-05-31T18:01:25.303Z,33.27
2023-05-31T18:03:57.620Z,33.53
2023-05-31T18:06:30.015Z,33.75
2023-05-31T18:09:01.839Z,33.80
2023-05-31T18:11:34.164Z,34.26
2023-05-31T18:14:06.898Z,34.58
2023-05-31T18:16:39.730Z,34.57
2023-05-31T18:19:11.527Z,34.83
2023-05-31T18:21:45.362Z,34.45
2023-05-31T18:24:17.626Z,34.78
2023-05-31T18:26:51.887Z,34.84
2023-05-31T18:29:24.143Z,34.34
2023-05-31T18:31:56.366Z,34.48
2023-05-31T18:34:28.791Z,34.22
2023-05-31T18:37:01.243Z,33.87
2023-05-31T18:39:33.366Z,33.54
2023-05-31T18:42:07.820Z,33.66
2023-05-31T18:44:40.022Z,33.68
2023-05-31T18:47:11.999Z,33.93
2023-05-31T18:49:43.809Z,34.39
2023-05-31T18:52:18.163Z,34.05
2023-05-31T18:54:50.005Z,34.22
2023-05-31T18:57:22.164Z,34.24
2023-05-31T18:59:54.276Z,34.09
2023-05-31T19:02:26.615Z,34.27
2023-05-31T19:04:58.865Z,34.59
2023-05-31T19:07:30.931Z,34.80
2023-05-31T19:10:05.734Z,34.52
2023-05-31T19:12:37.588Z,34.79
2023-05-31T19:15:12.923Z,35.02
2023-05-31T19:17:47.061Z,35.24
2023-05-31T19:20:19.212Z,35.41
2023-05-31T19:22:56.234Z,35.85
2023-05-31T19:25:28.407Z,36.20
2023-05-31T19:28:03.773Z,35.89
2023-05-31T19:30:35.582Z,35.96
2023-05-31T19:33:08.959Z,36.24
2023-05-31T19:35:41.202Z,37.46
2023-05-31T19:38:13.343Z,39.14
2023-05-31T19:40:45.194Z,39.38
2023-05-31T19:43:17.414Z,38.09
2023-05-31T19:45:51.137Z,38.45
2023-05-31T19:48:23.119Z,38.75
2023-05-31T19:50:54.948Z,38.75
2023-05-31T19:53:28.482Z,38.80
2023-05-31T19:56:00.954Z,39.99
2023-05-31T19:58:33.599Z,40.57
2023-05-31T20:01:06.991Z,40.79
2023-05-31T20:03:39.936Z,41.25
2023-05-31T20:06:12.354Z,41.73
2023-05-31T20:08:47.415Z,42.38
2023-05-31T20:11:20.620Z,43.12
2023-05-31T20:13:54.232Z,43.14
2023-05-31T20:16:28.266Z,42.78
2023-05-31T20:19:00.195Z,43.04
2023-05-31T20:21:33.125Z,43.76
2023-05-31T20:24:05.436Z,43.79
2023-05-31T20:26:37.384Z,44.17
2023-05-31T20:29:09.327Z,44.17
2023-05-31T20:31:41.340Z,44.53
2023-05-31T20:34:14.918Z,44.77
2023-05-31T20:36:49.003Z,44.69
2023-05-31T20:39:21.399Z,43.46
2023-05-31T20:41:53.434Z,44.66
2023-05-31T20:44:26.310Z,45.52
2023-05-31T20:46:58.577Z,45.98
2023-05-31T20:49:30.368Z,46.08
2023-05-31T20:52:05.410Z,46.31
2023-05-31T20:54:37.459Z,46.18
2023-05-31T20:57:11.283Z,47.04
2023-05-31T20:59:43.432Z,47.01
2023-05-31T21:02:15.294Z,47.58
2023-05-31T21:04:48.760Z,47.33
2023-05-31T21:07:20.850Z,47.74
2023-05-31T21:09:54.016Z,47.43
2023-05-31T21:12:26.322Z,46.90
2023-05-31T21:14:58.184Z,46.86
2023-05-31T21:17:31.564Z,46.78
2023-05-31T21:20:04.682Z,47.42
2023-05-31T21:22:36.979Z,46.89
2023-05-31T21:25:11.156Z,46.92
2023-05-31T21:27:44.062Z,46.83
2023-05-31T21:30:16.843Z,47.14
2023-05-31T21:32:47.169Z,47.13
2023-05-31T21:35:19.635Z,47.06
2023-05-31T21:37:51.534Z,47.90
2023-05-31T21:40:24.493Z,48.51
2023-05-31T21:42:56.326Z,48.81
2023-05-31T21:45:28.045Z,49.23
2023-05-31T21:48:00.223Z,49.26
2023-05-31T21:50:32.115Z,50.21
2023-05-31T21:53:03.993Z,50.39
2023-05-31T21:55:35.844Z,50.95
2023-05-31T21:58:07.639Z,50.40
2023-05-31T22:00:39.512Z,50.88
2023-05-31T22:03:11.254Z,51.47
2023-05-31T22:05:44.222Z,51.26
2023-05-31T22:08:15.926Z,51.35
2023-05-31T22:10:47.822Z,51.51
2023-05-31T22:13:19.562Z,51.55
2023-05-31T22:15:52.513Z,51.34
2023-05-31T22:18:24.249Z,51.46
2023-05-31T22:20:56.495Z,52.17
2023-05-31T22:23:29.217Z,52.46
2023-05-31T22:25:59.567Z,52.64
2023-05-31T22:28:31.476Z,52.97
2023-05-31T22:31:03.823Z,53.62
2023-05-31T22:33:35.991Z,53.71
2023-05-31T22:36:09.214Z,53.67
2023-05-31T22:38:40.959Z,53.75
2023-05-31T22:41:12.823Z,54.37
2023-05-31T22:43:44.662Z,54.51
2023-05-31T22:46:16.694Z,54.13
2023-05-31T22:48:48.606Z,54.23
2023-05-31T22:51:20.543Z,54.19
2023-05-31T22:53:52.269Z,54.63
2023-05-31T22:56:24.029Z,55.39
2023-05-31T22:58:55.953Z,55.43
2023-05-31T23:01:27.657Z,55.68
2023-05-31T23:04:01.454Z,56.32
2023-05-31T23:06:34.267Z,56.34
2023-05-31T23:09:06.643Z,56.70
2023-05-31T23:11:38.393Z,56.63
2023-05-31T23:14:10.249Z,56.89
2023-05-31T23:16:42.424Z,57.41
2023-05-31T23:19:15.054Z,56.99
2023-05-31T23:21:46.840Z,57.14
2023-05-31T23:24:18.609Z,56.94
2023-05-31T23:26:50.285Z,56.99
2023-05-31T23:29:22.122Z,57.06
2023-05-31T23:31:53.941Z,57.28
2023-05-31T23:34:25.836Z,57.73
2023-05-31T23:36:57.608Z,58.16
2023-05-31T23:39:29.305Z,57.95
2023-05-31T23:42:01.556Z,58.31
2023-05-31T23:44:33.372Z,58.19
2023-05-31T23:47:05.362Z,58.34
2023-05-31T23:49:37.150Z,58.56
2023-05-31T23:52:09.391Z,58.45
2023-05-31T23:54:41.858Z,58.34
2023-05-31T23:57:13.955Z,58.65
2023-05-31T23:59:45.694Z,59.25
